createdAt,value
2018-09-01T00:01:36.443Z,2.77
2018-09-01T00:04:05.039Z,2.90
2018-09-01T00:06:34.219Z,3.13
2018-09-01T00:09:03.213Z,3.17
2018-09-01T00:11:31.869Z,3.67
2018-09-01T00:14:00.449Z,3.80
2018-09-01T00:16:30.004Z,3.80
2018-09-01T00:18:58.914Z,3.10
2018-09-01T00:21:28.191Z,2.97
2018-09-01T00:23:56.900Z,3.13
2018-09-01T00:26:26.072Z,2.97
2018-09-01T00:28:54.763Z,3.40
2018-09-01T00:31:23.334Z,3.50
2018-09-01T00:33:51.953Z,3.87
2018-09-01T00:36:20.526Z,3.63
2018-09-01T00:38:54.879Z,3.80
2018-09-01T00:41:23.447Z,3.03
2018-09-01T00:43:52.065Z,3.83
2018-09-01T00:46:20.998Z,3.60
2018-09-01T00:48:50.387Z,3.47
2018-09-01T00:51:18.952Z,3.53
2018-09-01T00:53:48.455Z,4.20
2018-09-01T00:56:17.111Z,3.17
2018-09-01T00:58:45.727Z,4.13
2018-09-01T01:01:14.401Z,3.37
2018-09-01T01:03:42.967Z,3.58
2018-09-01T01:06:12.235Z,3.70
2018-09-01T01:08:41.798Z,3.30
2018-09-01T01:11:11.236Z,3.20
2018-09-01T01:13:39.814Z,3.53
2018-09-01T01:16:08.804Z,3.47
2018-09-01T01:18:38.048Z,3.63
2018-09-01T01:21:08.568Z,3.33
2018-09-01T01:23:37.132Z,3.20
2018-09-01T01:26:05.839Z,3.47
2018-09-01T01:28:34.991Z,3.23
2018-09-01T01:31:03.798Z,2.90
2018-09-01T01:33:32.728Z,3.00
2018-09-01T01:36:01.677Z,3.27
2018-09-01T01:38:30.268Z,3.03
2018-09-01T01:40:58.851Z,2.97
2018-09-01T01:43:27.431Z,3.10
2018-09-01T01:45:57.283Z,3.73
2018-09-01T01:48:25.875Z,3.60
2018-09-01T01:50:54.443Z,3.10
2018-09-01T01:53:23.959Z,2.97
2018-09-01T01:55:52.675Z,2.83
2018-09-01T01:58:21.345Z,2.90
2018-09-01T02:00:50.579Z,3.00
2018-09-01T02:03:19.132Z,2.30
2018-09-01T02:05:47.680Z,2.70
2018-09-01T02:08:17.236Z,2.87
2018-09-01T02:10:45.855Z,2.70
2018-09-01T02:13:14.460Z,3.33
2018-09-01T02:15:43.207Z,3.40
2018-09-01T02:18:11.775Z,2.47
2018-09-01T02:20:40.351Z,2.97
2018-09-01T02:23:10.189Z,2.50
2018-09-01T02:25:39.427Z,2.83
2018-09-01T02:28:08.187Z,3.23
2018-09-01T02:30:36.961Z,3.23
2018-09-01T02:33:05.511Z,2.90
2018-09-01T02:35:34.740Z,3.13
2018-09-01T02:38:03.663Z,2.80
2018-09-01T02:40:32.232Z,3.13
2018-09-01T02:43:00.808Z,3.43
2018-09-01T02:45:30.107Z,3.27
2018-09-01T02:47:59.668Z,3.13
2018-09-01T02:50:28.252Z,3.10
2018-09-01T02:52:57.342Z,3.13
2018-09-01T02:55:26.015Z,3.93
2018-09-01T02:57:54.608Z,2.67
2018-09-01T03:00:28.937Z,3.00
2018-09-01T03:02:57.896Z,3.30
2018-09-01T03:05:26.501Z,2.70
2018-09-01T03:07:55.985Z,3.27
2018-09-01T03:10:24.596Z,3.53
2018-09-01T03:12:53.352Z,3.83
2018-09-01T03:15:22.280Z,3.40
2018-09-01T03:17:50.860Z,3.60
2018-09-01T03:20:19.491Z,3.70
2018-09-01T03:22:48.097Z,4.03
2018-09-01T03:25:16.931Z,3.93
2018-09-01T03:27:58.064Z,4.07
2018-09-01T03:30:38.123Z,3.70
2018-09-01T03:33:15.568Z,3.90
2018-09-01T03:35:54.533Z,3.30
2018-09-01T03:38:36.742Z,3.53
2018-09-01T03:41:16.147Z,3.87
2018-09-01T03:43:57.155Z,3.80
2018-09-01T03:46:38.129Z,4.17
2018-09-01T03:49:16.856Z,4.13
2018-09-01T03:51:53.626Z,4.23
2018-09-01T03:54:34.297Z,4.10
2018-09-01T03:57:03.438Z,4.20
2018-09-01T03:59:32.007Z,4.33
2018-09-01T04:02:00.607Z,4.60
2018-09-01T04:04:29.376Z,4.63
2018-09-01T04:06:59.843Z,5.30
2018-09-01T04:09:28.981Z,4.30
2018-09-01T04:11:57.563Z,4.40
2018-09-01T04:14:26.285Z,4.60
2018-09-01T04:16:54.906Z,4.80
2018-09-01T04:19:23.480Z,4.90
2018-09-01T04:21:52.613Z,4.60
2018-09-01T04:24:21.363Z,5.03
2018-09-01T04:26:49.933Z,5.20
2018-09-01T04:29:18.828Z,4.60
2018-09-01T04:31:48.205Z,4.80
2018-09-01T04:34:16.859Z,5.00
2018-09-01T04:36:45.501Z,5.13
2018-09-01T04:39:14.466Z,5.13
2018-09-01T04:41:43.375Z,5.70
2018-09-01T04:44:12.087Z,5.33
2018-09-01T04:46:42.100Z,5.30
2018-09-01T04:49:10.680Z,5.30
2018-09-01T04:51:39.247Z,5.50
2018-09-01T04:54:07.849Z,5.43
2018-09-01T04:56:36.408Z,5.60
2018-09-01T04:59:05.691Z,4.93
2018-09-01T05:01:34.530Z,5.10
2018-09-01T05:04:03.184Z,5.83
2018-09-01T05:06:31.782Z,5.63
2018-09-01T05:09:00.941Z,5.43
2018-09-01T05:11:29.509Z,5.57
2018-09-01T05:13:58.268Z,6.27
2018-09-01T05:16:27.037Z,5.17
2018-09-01T05:18:56.261Z,5.43
2018-09-01T05:21:26.403Z,7.07
2018-09-01T05:23:55.548Z,6.27
2018-09-01T05:26:24.127Z,6.20
2018-09-01T05:28:52.799Z,6.00
2018-09-01T05:31:21.413Z,6.50
2018-09-01T05:33:50.640Z,6.53
2018-09-01T05:36:19.237Z,6.40
2018-09-01T05:38:47.852Z,6.50
2018-09-01T05:41:16.558Z,6.47
2018-09-01T05:43:45.210Z,6.83
2018-09-01T05:46:13.807Z,7.20
2018-09-01T05:48:43.492Z,6.20
2018-09-01T05:51:12.279Z,6.73
2018-09-01T05:53:41.297Z,6.50
2018-09-01T05:56:09.887Z,8.00
2018-09-01T05:58:38.471Z,6.87
2018-09-01T06:01:07.604Z,7.53
2018-09-01T06:03:36.260Z,7.30
2018-09-01T06:06:04.874Z,7.63
2018-09-01T06:08:33.491Z,7.80
2018-09-01T06:11:02.143Z,8.20
2018-09-01T06:13:30.895Z,7.90
2018-09-01T06:16:01.312Z,8.00
2018-09-01T06:18:30.387Z,8.03
2018-09-01T06:20:58.972Z,8.30
2018-09-01T06:23:28.092Z,7.50
2018-09-01T06:25:56.696Z,7.40
2018-09-01T06:28:29.679Z,8.33
2018-09-01T06:30:58.359Z,8.83
2018-09-01T06:33:27.047Z,7.60
2018-09-01T06:35:56.428Z,7.67
2018-09-01T06:38:25.055Z,9.20
2018-09-01T06:40:54.731Z,7.90
2018-09-01T06:43:23.539Z,8.20
2018-09-01T06:45:53.743Z,8.83
2018-09-01T06:48:22.336Z,7.70
2018-09-01T06:50:50.939Z,7.63
2018-09-01T06:53:19.559Z,7.50
2018-09-01T06:55:48.144Z,8.27
2018-09-01T06:58:17.002Z,8.43
2018-09-01T07:00:45.589Z,8.53
2018-09-01T07:03:14.722Z,7.87
2018-09-01T07:05:43.639Z,8.43
2018-09-01T07:08:12.249Z,7.10
2018-09-01T07:10:40.947Z,7.60
2018-09-01T07:13:10.007Z,7.43
2018-09-01T07:15:38.583Z,7.73
2018-09-01T07:18:07.771Z,7.80
2018-09-01T07:20:36.552Z,6.87
2018-09-01T07:23:06.507Z,7.07
2018-09-01T07:25:36.112Z,7.30
2018-09-01T07:28:05.733Z,6.50
2018-09-01T07:30:35.727Z,6.87
2018-09-01T07:33:04.263Z,6.53
2018-09-01T07:35:34.478Z,6.60
2018-09-01T07:38:06.206Z,6.43
2018-09-01T07:40:35.816Z,6.43
2018-09-01T07:43:04.430Z,5.80
2018-09-01T07:45:34.777Z,6.57
2018-09-01T07:48:10.053Z,7.60
2018-09-01T07:50:48.157Z,7.20
2018-09-01T07:53:16.812Z,7.77
2018-09-01T07:55:52.461Z,6.63
2018-09-01T07:58:21.406Z,6.33
2018-09-01T08:00:50.749Z,6.53
2018-09-01T08:03:19.464Z,7.62
2018-09-01T08:05:48.147Z,6.47
2018-09-01T08:08:17.756Z,6.80
2018-09-01T08:10:46.413Z,6.03
2018-09-01T08:13:15.443Z,6.13
2018-09-01T08:15:44.064Z,6.50
2018-09-01T08:18:12.684Z,5.90
2018-09-01T08:20:41.277Z,6.03
2018-09-01T08:23:10.259Z,5.73
2018-09-01T08:25:38.903Z,5.13
2018-09-01T08:28:08.595Z,5.50
2018-09-01T08:30:37.344Z,6.00
2018-09-01T08:34:09.059Z,6.00
2018-09-01T08:36:37.649Z,5.77
2018-09-01T08:39:07.354Z,5.57
2018-09-01T08:41:36.428Z,6.20
2018-09-01T08:44:05.182Z,4.83
2018-09-01T08:46:37.042Z,4.50
2018-09-01T08:49:05.826Z,4.83
2018-09-01T08:51:34.444Z,4.37
2018-09-01T08:54:03.088Z,4.40
2018-09-01T08:56:32.014Z,3.97
2018-09-01T08:59:00.685Z,4.47
2018-09-01T09:01:29.409Z,4.03
2018-09-01T09:03:58.249Z,4.63
2018-09-01T09:06:26.879Z,4.07
2018-09-01T09:08:55.472Z,3.20
2018-09-01T09:11:24.296Z,3.20
2018-09-01T09:13:53.640Z,4.27
2018-09-01T09:16:22.489Z,3.20
2018-09-01T09:18:52.880Z,3.60
2018-09-01T09:21:21.537Z,3.57
2018-09-01T09:23:51.425Z,3.03
2018-09-01T09:26:20.307Z,3.03
2018-09-01T09:28:49.036Z,3.10
2018-09-01T09:31:17.705Z,2.80
2018-09-01T09:33:47.296Z,2.90
2018-09-01T09:36:15.948Z,2.83
2018-09-01T09:38:44.683Z,3.90
2018-09-01T09:41:13.516Z,3.40
2018-09-01T09:43:42.116Z,3.73
2018-09-01T09:46:10.768Z,3.43
2018-09-01T09:48:39.391Z,3.13
2018-09-01T09:51:08.036Z,3.33
2018-09-01T09:53:36.666Z,4.20
2018-09-01T09:56:06.344Z,4.00
2018-09-01T09:58:35.067Z,4.07
2018-09-01T10:01:04.909Z,3.20
2018-09-01T10:03:35.351Z,4.17
2018-09-01T10:06:03.992Z,4.20
2018-09-01T10:08:33.471Z,3.80
2018-09-01T10:11:02.096Z,3.90
2018-09-01T10:13:31.424Z,4.10
2018-09-01T10:16:00.925Z,3.90
2018-09-01T10:18:29.855Z,3.90
2018-09-01T10:20:58.467Z,3.40
2018-09-01T10:23:27.714Z,4.27
2018-09-01T10:25:56.472Z,3.73
2018-09-01T10:28:25.412Z,3.60
2018-09-01T10:30:54.049Z,3.87
2018-09-01T10:33:24.408Z,3.87
2018-09-01T10:35:53.037Z,4.37
2018-09-01T10:38:21.763Z,3.50
2018-09-01T10:40:50.579Z,3.80
2018-09-01T10:43:19.217Z,3.87
2018-09-01T10:45:48.051Z,3.70
2018-09-01T10:48:17.353Z,3.50
2018-09-01T10:50:46.315Z,3.37
2018-09-01T10:53:15.121Z,3.33
2018-09-01T10:55:43.719Z,3.47
2018-09-01T10:58:12.344Z,3.30
2018-09-01T11:00:41.042Z,3.27
2018-09-01T11:03:10.688Z,2.17
2018-09-01T11:05:39.880Z,2.27
2018-09-01T11:08:08.480Z,3.10
2018-09-01T11:10:37.325Z,2.63
2018-09-01T11:13:05.940Z,2.63
2018-09-01T11:15:34.563Z,2.60
2018-09-01T11:18:03.414Z,2.90
2018-09-01T11:20:32.096Z,2.30
2018-09-01T11:23:01.538Z,2.63
2018-09-01T11:25:30.211Z,2.50
2018-09-01T11:27:59.095Z,2.60
2018-09-01T11:30:29.145Z,2.80
2018-09-01T11:32:59.412Z,2.50
2018-09-01T11:35:29.062Z,2.97
2018-09-01T11:37:58.738Z,2.23
2018-09-01T11:40:28.323Z,2.30
2018-09-01T11:42:57.507Z,2.73
2018-09-01T11:45:26.711Z,2.63
2018-09-01T11:47:55.404Z,3.63
2018-09-01T11:50:24.067Z,2.47
2018-09-01T11:52:52.708Z,2.80
2018-09-01T11:55:21.339Z,2.63
2018-09-01T11:57:49.924Z,3.10
2018-09-01T12:00:18.496Z,3.13
2018-09-01T12:02:47.732Z,2.93
2018-09-01T12:05:16.299Z,3.07
2018-09-01T12:07:44.915Z,3.40
2018-09-01T12:10:13.483Z,2.67
2018-09-01T12:12:42.051Z,2.90
2018-09-01T12:15:10.635Z,3.20
2018-09-01T12:17:39.231Z,3.50
2018-09-01T12:20:07.948Z,3.00
2018-09-01T12:22:36.593Z,3.17
2018-09-01T12:25:05.271Z,3.30
2018-09-01T12:27:33.819Z,3.20
2018-09-01T12:30:02.424Z,3.10
2018-09-01T12:32:31.040Z,5.27
2018-09-01T12:34:59.860Z,2.57
2018-09-01T12:37:28.787Z,2.80
2018-09-01T12:39:57.400Z,3.37
2018-09-01T12:42:26.018Z,4.00
2018-09-01T12:44:54.625Z,3.07
2018-09-01T12:47:23.748Z,2.83
2018-09-01T12:49:52.623Z,2.20
2018-09-01T12:52:21.213Z,2.70
2018-09-01T12:54:49.955Z,3.53
2018-09-01T12:57:18.971Z,2.30
2018-09-01T12:59:47.580Z,3.27
2018-09-01T13:02:21.783Z,2.57
2018-09-01T13:04:52.411Z,2.53
2018-09-01T13:07:21.602Z,2.67
2018-09-01T13:09:50.195Z,4.37
2018-09-01T13:12:20.669Z,4.47
2018-09-01T13:14:49.265Z,3.07
2018-09-01T13:17:18.016Z,4.60
2018-09-01T13:19:46.685Z,5.40
2018-09-01T13:22:15.292Z,2.77
2018-09-01T13:24:43.900Z,2.73
2018-09-01T13:27:12.582Z,3.00
2018-09-01T13:29:41.195Z,2.43
2018-09-01T13:32:11.184Z,2.27
2018-09-01T13:34:40.764Z,2.43
2018-09-01T13:37:09.697Z,2.50
2018-09-01T13:39:38.280Z,2.03
2018-09-01T13:42:07.664Z,1.90
2018-09-01T13:44:36.727Z,1.80
2018-09-01T13:47:06.484Z,1.70
2018-09-01T13:49:35.070Z,1.90
2018-09-01T13:52:03.707Z,1.70
2018-09-01T13:54:32.607Z,2.30
2018-09-01T13:57:01.214Z,2.13
2018-09-01T13:59:29.816Z,2.57
2018-09-01T14:01:58.937Z,2.60
2018-09-01T14:04:27.543Z,2.53
2018-09-01T14:06:56.163Z,2.40
2018-09-01T14:09:24.823Z,2.23
2018-09-01T14:11:53.415Z,2.20
2018-09-01T14:14:22.066Z,2.60
2018-09-01T14:16:50.834Z,2.23
2018-09-01T14:19:20.018Z,2.37
2018-09-01T14:21:48.775Z,2.63
2018-09-01T14:24:17.372Z,2.30
2018-09-01T14:26:46.971Z,2.60
2018-09-01T14:29:15.688Z,2.90
2018-09-01T14:31:44.461Z,2.57
2018-09-01T14:34:13.181Z,2.23
2018-09-01T14:36:41.808Z,1.90
2018-09-01T14:39:11.380Z,2.27
2018-09-01T14:41:39.951Z,2.40
2018-09-01T14:44:08.743Z,2.40
2018-09-01T14:46:37.484Z,2.37
2018-09-01T14:49:06.390Z,2.20
2018-09-01T14:51:34.984Z,1.70
2018-09-01T14:54:03.560Z,2.20
2018-09-01T14:56:32.365Z,2.40
2018-09-01T14:59:00.960Z,1.90
2018-09-01T15:01:29.571Z,2.13
2018-09-01T15:03:58.140Z,1.90
2018-09-01T15:06:26.704Z,2.20
2018-09-01T15:08:55.286Z,2.00
2018-09-01T15:11:23.872Z,1.90
2018-09-01T15:13:52.563Z,2.30
2018-09-01T15:16:21.892Z,2.03
2018-09-01T15:18:50.459Z,1.93
2018-09-01T15:21:19.120Z,1.80
2018-09-01T15:23:48.037Z,1.80
2018-09-01T15:26:16.656Z,1.57
2018-09-01T15:28:46.248Z,2.30
2018-09-01T15:31:14.963Z,2.53
2018-09-01T15:33:43.592Z,2.10
2018-09-01T15:36:12.211Z,1.60
2018-09-01T15:38:41.705Z,1.87
2018-09-01T15:41:10.308Z,1.80
2018-09-01T15:43:38.928Z,1.80
2018-09-01T15:46:07.771Z,1.73
2018-09-01T15:48:36.393Z,1.70
2018-09-01T15:51:05.014Z,2.20
2018-09-01T15:53:33.766Z,1.33
2018-09-01T15:56:02.351Z,1.80
2018-09-01T15:58:30.928Z,1.83
2018-09-01T16:00:59.547Z,1.50
2018-09-01T16:03:28.234Z,2.60
2018-09-01T16:05:56.828Z,1.73
2018-09-01T16:08:25.454Z,2.00
2018-09-01T16:10:54.061Z,1.53
2018-09-01T16:13:22.650Z,1.93
2018-09-01T16:15:52.264Z,1.90
2018-09-01T16:18:20.853Z,1.90
2018-09-01T16:20:49.548Z,2.20
2018-09-01T16:23:18.218Z,1.97
2018-09-01T16:25:46.855Z,1.73
2018-09-01T16:28:15.475Z,1.80
2018-09-01T16:30:44.199Z,1.82
2018-09-01T16:33:12.800Z,3.00
2018-09-01T16:35:41.406Z,2.30
2018-09-01T16:38:10.014Z,1.93
2018-09-01T16:40:38.575Z,1.90
2018-09-01T16:43:07.208Z,1.97
2018-09-01T16:45:35.833Z,2.20
2018-09-01T16:48:08.077Z,2.13
2018-09-01T16:50:36.677Z,2.10
2018-09-01T16:53:05.383Z,1.60
2018-09-01T16:55:33.968Z,1.90
2018-09-01T16:58:03.237Z,1.73
2018-09-01T17:00:31.883Z,1.80
2018-09-01T17:03:00.402Z,1.70
2018-09-01T17:05:28.997Z,1.80
2018-09-01T17:07:57.587Z,1.97
2018-09-01T17:10:26.171Z,2.27
2018-09-01T17:12:54.763Z,2.13
2018-09-01T17:15:23.566Z,2.50
2018-09-01T17:17:52.248Z,2.10
2018-09-01T17:20:20.885Z,1.70
2018-09-01T17:22:49.524Z,2.90
2018-09-01T17:25:18.115Z,2.60
2018-09-01T17:27:46.779Z,2.53
2018-09-01T17:30:15.356Z,2.40
2018-09-01T17:32:44.043Z,2.87
2018-09-01T17:35:12.629Z,2.63
2018-09-01T17:37:41.191Z,2.80
2018-09-01T17:40:09.856Z,2.27
2018-09-01T17:42:38.764Z,2.23
2018-09-01T17:45:07.847Z,2.53
2018-09-01T17:47:37.203Z,2.57
2018-09-01T17:50:06.000Z,2.40
2018-09-01T17:52:35.527Z,2.13
2018-09-01T17:55:04.180Z,2.10
2018-09-01T17:57:33.004Z,2.27
2018-09-01T18:00:01.593Z,1.83
2018-09-01T18:02:31.227Z,2.27
2018-09-01T18:05:00.468Z,2.30
2018-09-01T18:07:29.191Z,2.40
2018-09-01T18:09:57.876Z,1.87
2018-09-01T18:12:27.892Z,2.10
2018-09-01T18:14:56.496Z,2.47
2018-09-01T18:17:25.280Z,2.53
2018-09-01T18:19:54.007Z,2.60
2018-09-01T18:22:22.640Z,2.23
2018-09-01T18:24:51.520Z,2.53
2018-09-01T18:27:21.282Z,2.40
2018-09-01T18:29:50.046Z,2.10
2018-09-01T18:32:18.679Z,2.60
2018-09-01T18:34:47.286Z,2.40
2018-09-01T18:37:15.875Z,2.27
2018-09-01T18:39:44.602Z,2.40
2018-09-01T18:42:13.264Z,2.10
2018-09-01T18:44:41.914Z,2.77
2018-09-01T18:47:10.530Z,2.50
2018-09-01T18:49:39.304Z,2.10
2018-09-01T18:52:08.868Z,2.30
2018-09-01T18:54:37.493Z,2.53
2018-09-01T18:57:06.472Z,2.13
2018-09-01T18:59:35.203Z,2.10
2018-09-01T19:02:04.657Z,2.40
2018-09-01T19:04:33.557Z,2.00
2018-09-01T19:07:02.312Z,2.07
2018-09-01T19:09:30.914Z,2.00
2018-09-01T19:12:00.069Z,2.20
2018-09-01T19:14:28.867Z,1.83
2018-09-01T19:16:57.484Z,1.90
2018-09-01T19:19:26.139Z,1.80
2018-09-01T19:21:55.478Z,1.67
2018-09-01T19:24:24.436Z,1.90
2018-09-01T19:26:53.039Z,2.13
2018-09-01T19:29:21.670Z,1.80
2018-09-01T19:31:50.499Z,2.20
2018-09-01T19:34:19.175Z,1.90
2018-09-01T19:36:47.832Z,2.10
2018-09-01T19:39:16.428Z,2.10
2018-09-01T19:41:44.997Z,1.90
2018-09-01T19:44:14.231Z,1.80
2018-09-01T19:46:42.816Z,2.30
2018-09-01T19:49:11.424Z,2.17
2018-09-01T19:51:40.067Z,2.03
2018-09-01T19:54:08.681Z,2.33
2018-09-01T19:56:37.302Z,2.17
2018-09-01T19:59:05.912Z,2.50
2018-09-01T20:01:34.688Z,2.13
2018-09-01T20:04:03.313Z,2.50
2018-09-01T20:06:32.019Z,2.10
2018-09-01T20:09:00.690Z,1.73
2018-09-01T20:11:29.293Z,1.60
2018-09-01T20:13:58.027Z,2.10
2018-09-01T20:16:26.835Z,2.00
2018-09-01T20:18:55.406Z,1.97
2018-09-01T20:21:24.111Z,1.90
2018-09-01T20:23:52.799Z,2.00
2018-09-01T20:26:21.384Z,2.37
2018-09-01T20:28:50.042Z,2.47
2018-09-01T20:31:18.644Z,2.20
2018-09-01T20:33:47.255Z,2.40
2018-09-01T20:36:20.124Z,2.33
2018-09-01T20:38:48.716Z,2.20
2018-09-01T20:41:17.544Z,2.40
2018-09-01T20:43:46.165Z,2.30
2018-09-01T20:46:17.691Z,2.60
2018-09-01T20:48:47.206Z,2.57
2018-09-01T20:51:15.792Z,2.07
2018-09-01T20:53:44.374Z,2.60
2018-09-01T20:56:12.992Z,2.40
2018-09-01T20:58:41.587Z,2.60
2018-09-01T21:01:10.156Z,2.77
2018-09-01T21:03:38.752Z,2.93
2018-09-01T21:06:07.472Z,2.47
2018-09-01T21:08:36.059Z,2.53
2018-09-01T21:11:04.857Z,2.57
2018-09-01T21:13:33.425Z,2.40
2018-09-01T21:16:02.159Z,2.10
2018-09-01T21:18:30.767Z,2.10
2018-09-01T21:20:59.375Z,2.87
2018-09-01T21:23:28.424Z,2.20
2018-09-01T21:25:56.991Z,2.23
2018-09-01T21:28:25.564Z,2.87
2018-09-01T21:30:54.511Z,2.33
2018-09-01T21:33:23.079Z,2.60
2018-09-01T21:35:51.752Z,2.63
2018-09-01T21:38:20.344Z,2.93
2018-09-01T21:40:48.922Z,2.67
2018-09-01T21:43:17.506Z,2.50
2018-09-01T21:45:46.093Z,2.63
2018-09-01T21:48:14.674Z,2.83
2018-09-01T21:50:43.292Z,2.80
2018-09-01T21:53:11.875Z,2.63
2018-09-01T21:55:40.515Z,2.87
2018-09-01T21:58:09.118Z,3.07
2018-09-01T22:00:37.975Z,3.07
2018-09-01T22:03:06.553Z,2.53
2018-09-01T22:05:35.123Z,3.00
2018-09-01T22:08:04.263Z,2.87
2018-09-01T22:10:32.836Z,2.70
2018-09-01T22:13:01.409Z,2.83
2018-09-01T22:15:30.238Z,2.63
2018-09-01T22:17:58.805Z,3.17
2018-09-01T22:20:27.411Z,3.00
2018-09-01T22:22:56.049Z,2.47
2018-09-01T22:25:24.668Z,2.90
2018-09-01T22:27:53.251Z,2.60
2018-09-01T22:30:21.833Z,3.40
2018-09-01T22:32:50.473Z,2.97
2018-09-01T22:35:19.069Z,2.90
2018-09-01T22:37:47.684Z,2.87
2018-09-01T22:40:16.404Z,3.10
2018-09-01T22:42:44.960Z,3.03
2018-09-01T22:45:14.147Z,3.37
2018-09-01T22:47:42.760Z,3.13
2018-09-01T22:50:11.367Z,2.90
2018-09-01T22:52:40.107Z,3.30
2018-09-01T22:55:08.710Z,3.10
2018-09-01T22:57:37.370Z,2.80
2018-09-01T23:00:06.251Z,3.93
2018-09-01T23:02:34.861Z,3.13
2018-09-01T23:05:03.454Z,2.93
2018-09-01T23:07:32.037Z,2.97
2018-09-01T23:10:00.635Z,3.13
2018-09-01T23:12:29.408Z,2.73
2018-09-01T23:14:57.979Z,2.87
2018-09-01T23:17:26.635Z,3.43
2018-09-01T23:19:55.211Z,3.33
2018-09-01T23:22:23.808Z,3.30
2018-09-01T23:24:52.456Z,3.27
2018-09-01T23:27:21.051Z,3.37
2018-09-01T23:29:49.964Z,3.90
2018-09-01T23:32:18.611Z,3.97
2018-09-01T23:34:47.256Z,3.93
2018-09-01T23:37:15.836Z,4.60
2018-09-01T23:39:44.456Z,4.10
2018-09-01T23:42:13.051Z,3.90
2018-09-01T23:44:41.996Z,4.33
2018-09-01T23:47:10.745Z,4.93
2018-09-01T23:49:39.311Z,4.40
2018-09-01T23:52:07.936Z,4.43
2018-09-01T23:54:36.549Z,4.57
2018-09-01T23:57:05.248Z,4.47
2018-09-01T23:59:33.996Z,4.80
